sensor_id;sensor_type;location;lat;lon;timestamp;P1;durP1;ratioP1;P2;durP2;ratioP2
53267;SDS011;39156;51.176;6.738;2023-02-01T00:02:01;45.95;;;42.67;;
53267;SDS011;39156;51.176;6.738;2023-02-01T00:04:27;49.53;;;45.53;;
53267;SDS011;39156;51.176;6.738;2023-02-01T00:06:53;50.38;;;46.30;;
53267;SDS011;39156;51.176;6.738;2023-02-01T00:09:19;47.55;;;44.05;;
53267;SDS011;39156;51.176;6.738;2023-02-01T00:11:44;49.00;;;45.35;;
53267;SDS011;39156;51.176;6.738;2023-02-01T00:14:10;46.00;;;42.83;;
53267;SDS011;39156;51.176;6.738;2023-02-01T00:16:36;46.40;;;43.08;;
53267;SDS011;39156;51.176;6.738;2023-02-01T00:21:29;48.13;;;44.20;;
53267;SDS011;39156;51.176;6.738;2023-02-01T00:23:55;46.63;;;43.28;;
53267;SDS011;39156;51.176;6.738;2023-02-01T00:26:43;44.80;;;41.50;;
53267;SDS011;39156;51.176;6.738;2023-02-01T00:29:13;47.20;;;43.92;;
53267;SDS011;39156;51.176;6.738;2023-02-01T00:31:41;45.00;;;41.80;;
53267;SDS011;39156;51.176;6.738;2023-02-01T00:34:09;47.63;;;43.95;;
53267;SDS011;39156;51.176;6.738;2023-02-01T00:36:41;47.58;;;44.08;;
53267;SDS011;39156;51.176;6.738;2023-02-01T00:39:07;43.35;;;40.22;;
53267;SDS011;39156;51.176;6.738;2023-02-01T00:41:34;48.35;;;44.72;;
53267;SDS011;39156;51.176;6.738;2023-02-01T00:44:00;44.97;;;41.60;;
53267;SDS011;39156;51.176;6.738;2023-02-01T00:46:26;45.60;;;41.97;;
53267;SDS011;39156;51.176;6.738;2023-02-01T00:48:52;43.90;;;40.72;;
53267;SDS011;39156;51.176;6.738;2023-02-01T00:51:19;43.90;;;40.55;;
53267;SDS011;39156;51.176;6.738;2023-02-01T00:53:48;43.50;;;40.25;;
53267;SDS011;39156;51.176;6.738;2023-02-01T00:56:14;44.25;;;40.88;;
53267;SDS011;39156;51.176;6.738;2023-02-01T00:58:40;44.13;;;40.42;;
53267;SDS011;39156;51.176;6.738;2023-02-01T01:03:42;42.50;;;39.58;;
53267;SDS011;39156;51.176;6.738;2023-02-01T01:06:21;44.95;;;41.70;;
53267;SDS011;39156;51.176;6.738;2023-02-01T01:08:53;43.17;;;40.38;;
53267;SDS011;39156;51.176;6.738;2023-02-01T01:11:25;45.78;;;42.33;;
53267;SDS011;39156;51.176;6.738;2023-02-01T01:13:54;43.60;;;40.40;;
53267;SDS011;39156;51.176;6.738;2023-02-01T01:16:23;42.03;;;39.00;;
53267;SDS011;39156;51.176;6.738;2023-02-01T01:18:51;42.50;;;39.42;;
53267;SDS011;39156;51.176;6.738;2023-02-01T01:21:17;42.38;;;39.20;;
53267;SDS011;39156;51.176;6.738;2023-02-01T01:23:44;41.93;;;38.13;;
53267;SDS011;39156;51.176;6.738;2023-02-01T01:26:17;42.22;;;39.50;;
53267;SDS011;39156;51.176;6.738;2023-02-01T01:28:49;41.28;;;38.22;;
53267;SDS011;39156;51.176;6.738;2023-02-01T01:31:16;45.38;;;41.75;;
53267;SDS011;39156;51.176;6.738;2023-02-01T01:33:43;41.78;;;38.78;;
53267;SDS011;39156;51.176;6.738;2023-02-01T01:36:12;43.67;;;40.40;;
53267;SDS011;39156;51.176;6.738;2023-02-01T01:38:38;41.45;;;38.53;;
53267;SDS011;39156;51.176;6.738;2023-02-01T01:41:07;42.03;;;38.92;;
53267;SDS011;39156;51.176;6.738;2023-02-01T01:43:45;41.28;;;38.33;;
53267;SDS011;39156;51.176;6.738;2023-02-01T01:46:54;41.47;;;38.67;;
53267;SDS011;39156;51.176;6.738;2023-02-01T01:49:13;43.05;;;40.00;;
53267;SDS011;39156;51.176;6.738;2023-02-01T01:51:50;42.50;;;39.47;;
53267;SDS011;39156;51.176;6.738;2023-02-01T01:54:21;43.70;;;40.33;;
53267;SDS011;39156;51.176;6.738;2023-02-01T01:56:57;42.35;;;39.50;;
53267;SDS011;39156;51.176;6.738;2023-02-01T01:59:27;41.80;;;38.80;;
53267;SDS011;39156;51.176;6.738;2023-02-01T02:01:56;42.97;;;40.05;;
53267;SDS011;39156;51.176;6.738;2023-02-01T02:04:22;42.65;;;39.63;;
53267;SDS011;39156;51.176;6.738;2023-02-01T02:06:57;44.45;;;41.38;;
53267;SDS011;39156;51.176;6.738;2023-02-01T02:09:29;43.08;;;40.03;;
53267;SDS011;39156;51.176;6.738;2023-02-01T02:11:55;42.33;;;39.50;;
53267;SDS011;39156;51.176;6.738;2023-02-01T02:14:21;42.00;;;38.88;;
53267;SDS011;39156;51.176;6.738;2023-02-01T02:19:45;45.25;;;41.63;;
53267;SDS011;39156;51.176;6.738;2023-02-01T02:23:10;44.15;;;41.40;;
53267;SDS011;39156;51.176;6.738;2023-02-01T02:35:29;42.42;;;39.53;;
53267;SDS011;39156;51.176;6.738;2023-02-01T02:38:18;42.70;;;39.55;;
53267;SDS011;39156;51.176;6.738;2023-02-01T02:44:21;42.55;;;39.55;;
53267;SDS011;39156;51.176;6.738;2023-02-01T02:47:54;43.08;;;40.17;;
53267;SDS011;39156;51.176;6.738;2023-02-01T02:50:34;44.40;;;41.15;;
53267;SDS011;39156;51.176;6.738;2023-02-01T02:53:33;43.13;;;39.83;;
53267;SDS011;39156;51.176;6.738;2023-02-01T02:56:28;43.92;;;40.75;;
53267;SDS011;39156;51.176;6.738;2023-02-01T02:59:14;42.55;;;39.65;;
53267;SDS011;39156;51.176;6.738;2023-02-01T03:02:03;44.35;;;40.25;;
53267;SDS011;39156;51.176;6.738;2023-02-01T03:04:51;44.00;;;40.92;;
53267;SDS011;39156;51.176;6.738;2023-02-01T03:10:10;43.92;;;40.63;;
53267;SDS011;39156;51.176;6.738;2023-02-01T03:12:49;45.25;;;41.70;;
53267;SDS011;39156;51.176;6.738;2023-02-01T03:15:26;44.00;;;40.42;;
53267;SDS011;39156;51.176;6.738;2023-02-01T03:18:13;47.05;;;43.25;;
53267;SDS011;39156;51.176;6.738;2023-02-01T03:20:47;42.88;;;39.63;;
53267;SDS011;39156;51.176;6.738;2023-02-01T03:23:17;43.65;;;40.63;;
53267;SDS011;39156;51.176;6.738;2023-02-01T03:25:47;44.13;;;40.55;;
53267;SDS011;39156;51.176;6.738;2023-02-01T03:28:16;43.45;;;39.92;;
53267;SDS011;39156;51.176;6.738;2023-02-01T03:30:45;45.75;;;42.40;;
53267;SDS011;39156;51.176;6.738;2023-02-01T03:33:17;45.45;;;41.80;;
53267;SDS011;39156;51.176;6.738;2023-02-01T03:41:41;44.20;;;40.70;;
53267;SDS011;39156;51.176;6.738;2023-02-01T03:44:15;44.47;;;40.85;;
53267;SDS011;39156;51.176;6.738;2023-02-01T03:46:54;41.92;;;38.75;;
53267;SDS011;39156;51.176;6.738;2023-02-01T03:49:48;41.88;;;38.80;;
53267;SDS011;39156;51.176;6.738;2023-02-01T03:52:20;44.13;;;40.92;;
53267;SDS011;39156;51.176;6.738;2023-02-01T03:57:23;45.05;;;41.42;;
53267;SDS011;39156;51.176;6.738;2023-02-01T03:59:52;45.28;;;41.38;;
53267;SDS011;39156;51.176;6.738;2023-02-01T04:02:18;44.60;;;41.40;;
53267;SDS011;39156;51.176;6.738;2023-02-01T04:04:44;43.63;;;40.50;;
53267;SDS011;39156;51.176;6.738;2023-02-01T04:07:10;45.35;;;41.45;;
53267;SDS011;39156;51.176;6.738;2023-02-01T04:09:36;44.22;;;41.10;;
53267;SDS011;39156;51.176;6.738;2023-02-01T04:12:02;41.72;;;38.72;;
53267;SDS011;39156;51.176;6.738;2023-02-01T04:14:28;43.40;;;39.90;;
53267;SDS011;39156;51.176;6.738;2023-02-01T04:16:54;44.40;;;41.20;;
53267;SDS011;39156;51.176;6.738;2023-02-01T04:19:19;42.45;;;39.17;;
53267;SDS011;39156;51.176;6.738;2023-02-01T04:21:45;44.75;;;41.35;;
53267;SDS011;39156;51.176;6.738;2023-02-01T04:24:11;44.97;;;41.22;;
53267;SDS011;39156;51.176;6.738;2023-02-01T04:26:36;47.53;;;43.55;;
53267;SDS011;39156;51.176;6.738;2023-02-01T04:29:02;43.20;;;39.65;;
53267;SDS011;39156;51.176;6.738;2023-02-01T04:31:28;42.60;;;39.25;;
53267;SDS011;39156;51.176;6.738;2023-02-01T04:33:54;43.92;;;40.15;;
53267;SDS011;39156;51.176;6.738;2023-02-01T04:36:22;46.55;;;42.80;;
53267;SDS011;39156;51.176;6.738;2023-02-01T04:38:49;44.33;;;40.90;;
53267;SDS011;39156;51.176;6.738;2023-02-01T04:41:15;43.28;;;39.70;;
53267;SDS011;39156;51.176;6.738;2023-02-01T04:43:47;41.92;;;38.85;;
53267;SDS011;39156;51.176;6.738;2023-02-01T04:46:14;44.55;;;41.28;;
53267;SDS011;39156;51.176;6.738;2023-02-01T04:48:39;44.47;;;41.08;;
53267;SDS011;39156;51.176;6.738;2023-02-01T04:51:06;43.40;;;40.50;;
53267;SDS011;39156;51.176;6.738;2023-02-01T04:53:32;42.38;;;38.53;;
53267;SDS011;39156;51.176;6.738;2023-02-01T04:55:58;43.97;;;40.92;;
53267;SDS011;39156;51.176;6.738;2023-02-01T04:58:23;47.13;;;43.65;;
53267;SDS011;39156;51.176;6.738;2023-02-01T05:00:49;44.80;;;41.13;;
53267;SDS011;39156;51.176;6.738;2023-02-01T05:03:16;43.78;;;40.17;;
53267;SDS011;39156;51.176;6.738;2023-02-01T05:05:42;44.88;;;41.25;;
53267;SDS011;39156;51.176;6.738;2023-02-01T05:08:08;43.78;;;40.00;;
53267;SDS011;39156;51.176;6.738;2023-02-01T05:10:33;43.33;;;40.05;;
53267;SDS011;39156;51.176;6.738;2023-02-01T05:12:59;45.55;;;40.90;;
53267;SDS011;39156;51.176;6.738;2023-02-01T05:15:43;43.20;;;40.10;;
53267;SDS011;39156;51.176;6.738;2023-02-01T05:18:11;43.10;;;39.47;;
53267;SDS011;39156;51.176;6.738;2023-02-01T05:20:37;44.47;;;40.83;;
53267;SDS011;39156;51.176;6.738;2023-02-01T05:23:03;44.75;;;40.95;;
53267;SDS011;39156;51.176;6.738;2023-02-01T05:25:29;43.95;;;40.28;;
53267;SDS011;39156;51.176;6.738;2023-02-01T05:27:54;43.58;;;40.00;;
53267;SDS011;39156;51.176;6.738;2023-02-01T05:30:20;44.72;;;41.17;;
53267;SDS011;39156;51.176;6.738;2023-02-01T05:32:49;43.38;;;40.05;;
53267;SDS011;39156;51.176;6.738;2023-02-01T05:35:16;44.28;;;40.58;;
53267;SDS011;39156;51.176;6.738;2023-02-01T05:37:42;45.10;;;40.97;;
53267;SDS011;39156;51.176;6.738;2023-02-01T05:40:08;43.22;;;40.08;;
53267;SDS011;39156;51.176;6.738;2023-02-01T05:42:34;43.90;;;40.33;;
53267;SDS011;39156;51.176;6.738;2023-02-01T05:45:00;44.47;;;41.10;;
53267;SDS011;39156;51.176;6.738;2023-02-01T05:47:25;43.42;;;40.05;;
53267;SDS011;39156;51.176;6.738;2023-02-01T05:49:51;44.60;;;41.17;;
53267;SDS011;39156;51.176;6.738;2023-02-01T05:52:17;43.70;;;40.47;;
53267;SDS011;39156;51.176;6.738;2023-02-01T05:54:44;44.67;;;41.42;;
53267;SDS011;39156;51.176;6.738;2023-02-01T05:57:12;46.58;;;42.42;;
53267;SDS011;39156;51.176;6.738;2023-02-01T05:59:38;43.60;;;40.37;;
53267;SDS011;39156;51.176;6.738;2023-02-01T06:02:09;43.47;;;39.65;;
53267;SDS011;39156;51.176;6.738;2023-02-01T06:07:02;44.55;;;40.40;;
53267;SDS011;39156;51.176;6.738;2023-02-01T06:09:28;43.75;;;40.05;;
53267;SDS011;39156;51.176;6.738;2023-02-01T06:11:54;44.22;;;40.67;;
53267;SDS011;39156;51.176;6.738;2023-02-01T06:14:20;43.38;;;40.08;;
53267;SDS011;39156;51.176;6.738;2023-02-01T06:16:45;44.13;;;40.30;;
53267;SDS011;39156;51.176;6.738;2023-02-01T06:19:11;44.90;;;41.53;;
53267;SDS011;39156;51.176;6.738;2023-02-01T06:21:38;43.63;;;40.15;;
53267;SDS011;39156;51.176;6.738;2023-02-01T06:24:03;45.15;;;40.80;;
53267;SDS011;39156;51.176;6.738;2023-02-01T06:26:31;43.88;;;40.55;;
53267;SDS011;39156;51.176;6.738;2023-02-01T06:28:57;43.85;;;40.10;;
53267;SDS011;39156;51.176;6.738;2023-02-01T06:31:22;43.72;;;40.75;;
53267;SDS011;39156;51.176;6.738;2023-02-01T06:33:48;42.22;;;39.08;;
53267;SDS011;39156;51.176;6.738;2023-02-01T06:36:14;45.45;;;42.08;;
53267;SDS011;39156;51.176;6.738;2023-02-01T06:38:40;44.10;;;40.67;;
53267;SDS011;39156;51.176;6.738;2023-02-01T06:41:06;44.45;;;41.13;;
53267;SDS011;39156;51.176;6.738;2023-02-01T06:43:33;42.58;;;38.97;;
53267;SDS011;39156;51.176;6.738;2023-02-01T06:46:03;42.63;;;39.30;;
53267;SDS011;39156;51.176;6.738;2023-02-01T06:48:32;45.10;;;41.53;;
53267;SDS011;39156;51.176;6.738;2023-02-01T06:50:58;44.42;;;39.80;;
53267;SDS011;39156;51.176;6.738;2023-02-01T06:53:24;44.03;;;40.50;;
53267;SDS011;39156;51.176;6.738;2023-02-01T06:55:51;43.67;;;40.20;;
53267;SDS011;39156;51.176;6.738;2023-02-01T06:58:21;43.20;;;39.80;;
53267;SDS011;39156;51.176;6.738;2023-02-01T07:00:48;43.47;;;40.07;;
53267;SDS011;39156;51.176;6.738;2023-02-01T07:03:14;43.15;;;39.67;;
53267;SDS011;39156;51.176;6.738;2023-02-01T07:05:40;44.15;;;40.80;;
53267;SDS011;39156;51.176;6.738;2023-02-01T07:08:05;45.03;;;41.25;;
53267;SDS011;39156;51.176;6.738;2023-02-01T07:10:31;41.78;;;38.55;;
53267;SDS011;39156;51.176;6.738;2023-02-01T07:12:59;44.92;;;41.40;;
53267;SDS011;39156;51.176;6.738;2023-02-01T07:15:24;43.42;;;40.05;;
53267;SDS011;39156;51.176;6.738;2023-02-01T07:17:50;46.35;;;42.45;;
53267;SDS011;39156;51.176;6.738;2023-02-01T07:20:16;43.70;;;40.55;;
53267;SDS011;39156;51.176;6.738;2023-02-01T07:22:42;43.22;;;39.33;;
53267;SDS011;39156;51.176;6.738;2023-02-01T07:25:08;42.92;;;39.30;;
53267;SDS011;39156;51.176;6.738;2023-02-01T07:27:34;44.13;;;40.53;;
53267;SDS011;39156;51.176;6.738;2023-02-01T07:30:00;45.97;;;42.08;;
53267;SDS011;39156;51.176;6.738;2023-02-01T07:32:27;43.90;;;40.08;;
53267;SDS011;39156;51.176;6.738;2023-02-01T07:34:54;45.53;;;42.13;;
53267;SDS011;39156;51.176;6.738;2023-02-01T07:37:20;41.20;;;38.10;;
53267;SDS011;39156;51.176;6.738;2023-02-01T07:39:46;44.92;;;41.28;;
53267;SDS011;39156;51.176;6.738;2023-02-01T07:42:11;41.20;;;37.85;;
53267;SDS011;39156;51.176;6.738;2023-02-01T07:44:37;42.30;;;38.78;;
53267;SDS011;39156;51.176;6.738;2023-02-01T07:47:03;45.28;;;41.67;;
53267;SDS011;39156;51.176;6.738;2023-02-01T07:49:28;43.03;;;39.40;;
53267;SDS011;39156;51.176;6.738;2023-02-01T07:51:54;41.78;;;38.67;;
53267;SDS011;39156;51.176;6.738;2023-02-01T07:54:19;42.00;;;38.75;;
53267;SDS011;39156;51.176;6.738;2023-02-01T07:56:45;43.15;;;40.28;;
53267;SDS011;39156;51.176;6.738;2023-02-01T07:59:11;42.83;;;39.20;;
53267;SDS011;39156;51.176;6.738;2023-02-01T08:01:36;41.58;;;38.17;;
53267;SDS011;39156;51.176;6.738;2023-02-01T08:04:02;44.13;;;40.55;;
53267;SDS011;39156;51.176;6.738;2023-02-01T08:06:29;43.30;;;39.67;;
53267;SDS011;39156;51.176;6.738;2023-02-01T08:08:58;44.88;;;41.35;;
53267;SDS011;39156;51.176;6.738;2023-02-01T08:11:24;45.03;;;41.28;;
53267;SDS011;39156;51.176;6.738;2023-02-01T08:13:51;43.87;;;40.40;;
53267;SDS011;39156;51.176;6.738;2023-02-01T08:16:17;42.20;;;39.22;;
53267;SDS011;39156;51.176;6.738;2023-02-01T08:18:44;43.05;;;39.55;;
53267;SDS011;39156;51.176;6.738;2023-02-01T08:21:12;41.70;;;38.47;;
53267;SDS011;39156;51.176;6.738;2023-02-01T08:23:47;41.55;;;38.42;;
53267;SDS011;39156;51.176;6.738;2023-02-01T08:26:16;43.90;;;40.63;;
53267;SDS011;39156;51.176;6.738;2023-02-01T08:28:47;42.60;;;39.30;;
53267;SDS011;39156;51.176;6.738;2023-02-01T08:31:19;42.35;;;39.10;;
53267;SDS011;39156;51.176;6.738;2023-02-01T08:33:48;43.67;;;39.95;;
53267;SDS011;39156;51.176;6.738;2023-02-01T08:36:17;43.85;;;40.25;;
53267;SDS011;39156;51.176;6.738;2023-02-01T08:38:43;42.70;;;39.27;;
53267;SDS011;39156;51.176;6.738;2023-02-01T08:41:10;41.53;;;38.28;;
53267;SDS011;39156;51.176;6.738;2023-02-01T08:43:39;44.65;;;40.65;;
53267;SDS011;39156;51.176;6.738;2023-02-01T08:46:06;44.63;;;40.67;;
53267;SDS011;39156;51.176;6.738;2023-02-01T08:51:03;42.22;;;38.97;;
53267;SDS011;39156;51.176;6.738;2023-02-01T08:53:30;44.58;;;41.28;;
53267;SDS011;39156;51.176;6.738;2023-02-01T08:55:56;42.28;;;39.10;;
53267;SDS011;39156;51.176;6.738;2023-02-01T08:58:22;42.95;;;39.35;;
53267;SDS011;39156;51.176;6.738;2023-02-01T09:00:48;42.72;;;39.53;;
53267;SDS011;39156;51.176;6.738;2023-02-01T09:03:14;43.67;;;40.50;;
53267;SDS011;39156;51.176;6.738;2023-02-01T09:05:40;42.22;;;38.65;;
53267;SDS011;39156;51.176;6.738;2023-02-01T09:08:06;44.35;;;41.00;;
53267;SDS011;39156;51.176;6.738;2023-02-01T09:10:32;45.42;;;41.50;;
53267;SDS011;39156;51.176;6.738;2023-02-01T09:12:59;43.17;;;39.97;;
53267;SDS011;39156;51.176;6.738;2023-02-01T09:15:25;43.55;;;40.15;;
53267;SDS011;39156;51.176;6.738;2023-02-01T09:17:51;43.75;;;40.72;;
53267;SDS011;39156;51.176;6.738;2023-02-01T09:20:16;42.95;;;39.80;;
53267;SDS011;39156;51.176;6.738;2023-02-01T09:22:45;44.58;;;41.15;;
53267;SDS011;39156;51.176;6.738;2023-02-01T09:25:10;44.70;;;40.80;;
53267;SDS011;39156;51.176;6.738;2023-02-01T09:27:36;43.67;;;40.25;;
53267;SDS011;39156;51.176;6.738;2023-02-01T09:30:02;41.78;;;38.28;;
53267;SDS011;39156;51.176;6.738;2023-02-01T09:32:29;43.22;;;39.65;;
53267;SDS011;39156;51.176;6.738;2023-02-01T09:34:55;41.83;;;38.95;;
53267;SDS011;39156;51.176;6.738;2023-02-01T09:37:21;44.33;;;41.00;;
53267;SDS011;39156;51.176;6.738;2023-02-01T09:39:47;43.22;;;40.13;;
53267;SDS011;39156;51.176;6.738;2023-02-01T09:42:21;43.85;;;40.08;;
53267;SDS011;39156;51.176;6.738;2023-02-01T09:48:13;41.50;;;38.40;;
53267;SDS011;39156;51.176;6.738;2023-02-01T09:50:44;43.33;;;40.10;;
53267;SDS011;39156;51.176;6.738;2023-02-01T09:53:18;44.42;;;40.50;;
53267;SDS011;39156;51.176;6.738;2023-02-01T09:56:05;42.38;;;39.08;;
53267;SDS011;39156;51.176;6.738;2023-02-01T09:58:38;43.90;;;40.60;;
53267;SDS011;39156;51.176;6.738;2023-02-01T10:01:23;43.80;;;40.33;;
53267;SDS011;39156;51.176;6.738;2023-02-01T10:03:57;42.63;;;39.38;;
53267;SDS011;39156;51.176;6.738;2023-02-01T10:10:48;44.63;;;41.13;;
53267;SDS011;39156;51.176;6.738;2023-02-01T10:13:21;41.10;;;37.70;;
53267;SDS011;39156;51.176;6.738;2023-02-01T10:16:12;42.88;;;39.65;;
53267;SDS011;39156;51.176;6.738;2023-02-01T10:24:20;43.60;;;39.95;;
53267;SDS011;39156;51.176;6.738;2023-02-01T10:27:01;44.75;;;41.10;;
53267;SDS011;39156;51.176;6.738;2023-02-01T10:29:38;41.90;;;38.63;;
53267;SDS011;39156;51.176;6.738;2023-02-01T10:32:18;42.15;;;38.95;;
53267;SDS011;39156;51.176;6.738;2023-02-01T10:34:50;40.38;;;37.55;;
53267;SDS011;39156;51.176;6.738;2023-02-01T10:37:30;42.58;;;39.28;;
53267;SDS011;39156;51.176;6.738;2023-02-01T10:40:19;41.97;;;38.75;;
53267;SDS011;39156;51.176;6.738;2023-02-01T10:42:49;41.40;;;38.20;;
53267;SDS011;39156;51.176;6.738;2023-02-01T10:45:20;40.67;;;36.90;;
53267;SDS011;39156;51.176;6.738;2023-02-01T10:47:48;41.20;;;37.97;;
53267;SDS011;39156;51.176;6.738;2023-02-01T10:50:18;41.25;;;38.45;;
53267;SDS011;39156;51.176;6.738;2023-02-01T10:53:11;43.42;;;39.92;;
53267;SDS011;39156;51.176;6.738;2023-02-01T10:55:51;42.17;;;38.95;;
53267;SDS011;39156;51.176;6.738;2023-02-01T10:58:19;42.78;;;39.45;;
53267;SDS011;39156;51.176;6.738;2023-02-01T11:09:25;42.45;;;39.58;;
53267;SDS011;39156;51.176;6.738;2023-02-01T11:14:17;39.88;;;36.88;;
53267;SDS011;39156;51.176;6.738;2023-02-01T11:16:50;40.83;;;38.17;;
53267;SDS011;39156;51.176;6.738;2023-02-01T11:19:37;41.58;;;38.53;;
53267;SDS011;39156;51.176;6.738;2023-02-01T11:22:03;43.00;;;39.67;;
53267;SDS011;39156;51.176;6.738;2023-02-01T11:24:33;41.60;;;37.90;;
53267;SDS011;39156;51.176;6.738;2023-02-01T11:27:02;42.72;;;39.22;;
53267;SDS011;39156;51.176;6.738;2023-02-01T11:29:33;41.72;;;38.70;;
53267;SDS011;39156;51.176;6.738;2023-02-01T11:32:04;42.17;;;39.38;;
53267;SDS011;39156;51.176;6.738;2023-02-01T11:34:33;41.40;;;38.27;;
53267;SDS011;39156;51.176;6.738;2023-02-01T11:37:20;42.60;;;39.65;;
53267;SDS011;39156;51.176;6.738;2023-02-01T11:39:57;41.47;;;37.90;;
53267;SDS011;39156;51.176;6.738;2023-02-01T11:42:25;41.90;;;38.60;;
53267;SDS011;39156;51.176;6.738;2023-02-01T11:45:13;42.28;;;38.60;;
53267;SDS011;39156;51.176;6.738;2023-02-01T11:48:09;40.05;;;36.63;;
53267;SDS011;39156;51.176;6.738;2023-02-01T11:50:43;41.70;;;38.55;;
53267;SDS011;39156;51.176;6.738;2023-02-01T11:56:37;40.83;;;37.92;;
53267;SDS011;39156;51.176;6.738;2023-02-01T12:05:53;40.17;;;37.15;;
53267;SDS011;39156;51.176;6.738;2023-02-01T12:08:53;44.47;;;40.95;;
53267;SDS011;39156;51.176;6.738;2023-02-01T12:14:34;41.83;;;38.13;;
53267;SDS011;39156;51.176;6.738;2023-02-01T12:17:16;41.22;;;38.13;;
53267;SDS011;39156;51.176;6.738;2023-02-01T12:32:06;42.55;;;39.22;;
53267;SDS011;39156;51.176;6.738;2023-02-01T12:35:22;41.33;;;38.33;;
53267;SDS011;39156;51.176;6.738;2023-02-01T12:43:40;41.17;;;38.08;;
53267;SDS011;39156;51.176;6.738;2023-02-01T12:46:37;43.13;;;39.97;;
53267;SDS011;39156;51.176;6.738;2023-02-01T12:49:27;41.05;;;37.88;;
53267;SDS011;39156;51.176;6.738;2023-02-01T12:52:10;40.03;;;36.85;;
53267;SDS011;39156;51.176;6.738;2023-02-01T12:55:03;42.10;;;38.92;;
53267;SDS011;39156;51.176;6.738;2023-02-01T12:58:14;41.60;;;38.53;;
53267;SDS011;39156;51.176;6.738;2023-02-01T13:01:20;40.90;;;37.88;;
53267;SDS011;39156;51.176;6.738;2023-02-01T13:03:44;42.63;;;39.28;;
53267;SDS011;39156;51.176;6.738;2023-02-01T13:06:42;40.95;;;38.08;;
53267;SDS011;39156;51.176;6.738;2023-02-01T13:09:32;42.92;;;39.72;;
53267;SDS011;39156;51.176;6.738;2023-02-01T13:12:13;40.95;;;38.05;;
53267;SDS011;39156;51.176;6.738;2023-02-01T13:14:51;43.08;;;39.70;;
53267;SDS011;39156;51.176;6.738;2023-02-01T13:17:29;39.60;;;36.70;;
53267;SDS011;39156;51.176;6.738;2023-02-01T13:20:05;39.60;;;36.65;;
53267;SDS011;39156;51.176;6.738;2023-02-01T13:22:48;40.30;;;37.42;;
53267;SDS011;39156;51.176;6.738;2023-02-01T13:25:34;40.65;;;37.78;;
53267;SDS011;39156;51.176;6.738;2023-02-01T13:28:13;40.43;;;37.10;;
53267;SDS011;39156;51.176;6.738;2023-02-01T13:37:28;40.72;;;37.85;;
53267;SDS011;39156;51.176;6.738;2023-02-01T13:40:07;41.78;;;38.58;;
53267;SDS011;39156;51.176;6.738;2023-02-01T13:42:50;41.85;;;38.88;;
53267;SDS011;39156;51.176;6.738;2023-02-01T13:45:23;39.05;;;36.35;;
53267;SDS011;39156;51.176;6.738;2023-02-01T13:47:56;41.47;;;38.58;;
53267;SDS011;39156;51.176;6.738;2023-02-01T13:50:36;39.53;;;36.70;;
53267;SDS011;39156;51.176;6.738;2023-02-01T13:55:38;41.95;;;38.97;;
53267;SDS011;39156;51.176;6.738;2023-02-01T13:58:13;40.15;;;36.65;;
53267;SDS011;39156;51.176;6.738;2023-02-01T14:01:31;40.40;;;37.20;;
53267;SDS011;39156;51.176;6.738;2023-02-01T14:04:03;41.22;;;37.90;;
53267;SDS011;39156;51.176;6.738;2023-02-01T14:16:41;40.60;;;37.15;;
53267;SDS011;39156;51.176;6.738;2023-02-01T14:19:20;41.88;;;38.75;;
53267;SDS011;39156;51.176;6.738;2023-02-01T14:21:57;43.25;;;39.55;;
53267;SDS011;39156;51.176;6.738;2023-02-01T14:24:27;40.83;;;38.03;;
53267;SDS011;39156;51.176;6.738;2023-02-01T14:27:02;40.55;;;37.80;;
53267;SDS011;39156;51.176;6.738;2023-02-01T14:29:53;39.17;;;36.40;;
53267;SDS011;39156;51.176;6.738;2023-02-01T14:32:25;39.78;;;36.42;;
53267;SDS011;39156;51.176;6.738;2023-02-01T14:34:59;39.45;;;36.75;;
53267;SDS011;39156;51.176;6.738;2023-02-01T14:37:29;39.83;;;37.22;;
53267;SDS011;39156;51.176;6.738;2023-02-01T14:47:53;40.47;;;37.25;;
53267;SDS011;39156;51.176;6.738;2023-02-01T14:50:40;39.35;;;36.42;;
53267;SDS011;39156;51.176;6.738;2023-02-01T14:55:41;39.38;;;36.60;;
53267;SDS011;39156;51.176;6.738;2023-02-01T14:58:14;39.75;;;36.75;;
53267;SDS011;39156;51.176;6.738;2023-02-01T15:00:59;39.95;;;37.13;;
53267;SDS011;39156;51.176;6.738;2023-02-01T15:06:48;41.00;;;38.15;;
53267;SDS011;39156;51.176;6.738;2023-02-01T15:15:03;41.10;;;38.15;;
53267;SDS011;39156;51.176;6.738;2023-02-01T15:17:48;40.78;;;37.95;;
53267;SDS011;39156;51.176;6.738;2023-02-01T15:20:41;40.35;;;37.33;;
53267;SDS011;39156;51.176;6.738;2023-02-01T15:23:16;38.90;;;35.78;;
53267;SDS011;39156;51.176;6.738;2023-02-01T15:25:44;41.63;;;38.63;;
53267;SDS011;39156;51.176;6.738;2023-02-01T15:28:15;39.88;;;37.03;;
53267;SDS011;39156;51.176;6.738;2023-02-01T15:30:56;50.72;;;36.78;;
53267;SDS011;39156;51.176;6.738;2023-02-01T15:33:25;39.10;;;36.30;;
53267;SDS011;39156;51.176;6.738;2023-02-01T15:35:53;38.78;;;36.10;;
53267;SDS011;39156;51.176;6.738;2023-02-01T15:38:43;39.15;;;36.50;;
53267;SDS011;39156;51.176;6.738;2023-02-01T15:41:13;41.95;;;38.97;;
53267;SDS011;39156;51.176;6.738;2023-02-01T15:51:43;41.95;;;38.88;;
53267;SDS011;39156;51.176;6.738;2023-02-01T15:54:19;40.80;;;37.78;;
53267;SDS011;39156;51.176;6.738;2023-02-01T15:56:54;38.65;;;36.10;;
53267;SDS011;39156;51.176;6.738;2023-02-01T15:59:43;41.50;;;38.67;;
53267;SDS011;39156;51.176;6.738;2023-02-01T16:02:25;41.63;;;38.85;;
53267;SDS011;39156;51.176;6.738;2023-02-01T16:05:04;39.97;;;37.13;;
53267;SDS011;39156;51.176;6.738;2023-02-01T16:07:59;40.95;;;37.92;;
53267;SDS011;39156;51.176;6.738;2023-02-01T16:10:29;40.70;;;37.53;;
53267;SDS011;39156;51.176;6.738;2023-02-01T16:12:57;41.47;;;38.50;;
53267;SDS011;39156;51.176;6.738;2023-02-01T16:15:25;37.25;;;34.65;;
53267;SDS011;39156;51.176;6.738;2023-02-01T16:17:54;39.78;;;36.83;;
53267;SDS011;39156;51.176;6.738;2023-02-01T16:20:20;42.50;;;39.28;;
53267;SDS011;39156;51.176;6.738;2023-02-01T16:22:46;41.03;;;37.88;;
53267;SDS011;39156;51.176;6.738;2023-02-01T16:25:12;38.42;;;35.85;;
53267;SDS011;39156;51.176;6.738;2023-02-01T16:27:37;40.42;;;37.25;;
53267;SDS011;39156;51.176;6.738;2023-02-01T16:30:03;38.97;;;36.00;;
53267;SDS011;39156;51.176;6.738;2023-02-01T16:32:29;39.55;;;36.40;;
53267;SDS011;39156;51.176;6.738;2023-02-01T16:34:56;42.53;;;39.15;;
53267;SDS011;39156;51.176;6.738;2023-02-01T16:37:23;40.15;;;37.05;;
53267;SDS011;39156;51.176;6.738;2023-02-01T16:39:50;39.78;;;37.00;;
53267;SDS011;39156;51.176;6.738;2023-02-01T16:42:16;41.42;;;38.25;;
53267;SDS011;39156;51.176;6.738;2023-02-01T16:44:42;38.35;;;35.67;;
53267;SDS011;39156;51.176;6.738;2023-02-01T16:47:11;39.78;;;36.38;;
53267;SDS011;39156;51.176;6.738;2023-02-01T16:49:42;40.03;;;36.85;;
53267;SDS011;39156;51.176;6.738;2023-02-01T16:52:27;41.47;;;38.45;;
53267;SDS011;39156;51.176;6.738;2023-02-01T16:54:53;40.38;;;37.47;;
53267;SDS011;39156;51.176;6.738;2023-02-01T16:57:19;40.72;;;37.67;;
53267;SDS011;39156;51.176;6.738;2023-02-01T16:59:48;40.20;;;37.17;;
53267;SDS011;39156;51.176;6.738;2023-02-01T17:02:16;39.20;;;36.38;;
53267;SDS011;39156;51.176;6.738;2023-02-01T17:04:48;38.92;;;36.08;;
53267;SDS011;39156;51.176;6.738;2023-02-01T17:07:15;40.97;;;37.85;;
53267;SDS011;39156;51.176;6.738;2023-02-01T17:09:43;40.35;;;37.45;;